sensor_id;sensor_type;location;lat;lon;timestamp;temperature;humidity
40289;DHT22;28991;52.028;5.526;2023-05-16T00:01:33;21.30;54.00
40289;DHT22;28991;52.028;5.526;2023-05-16T00:03:59;21.20;54.00
40289;DHT22;28991;52.028;5.526;2023-05-16T00:06:25;21.30;54.00
40289;DHT22;28991;52.028;5.526;2023-05-16T00:08:51;21.20;54.00
40289;DHT22;28991;52.028;5.526;2023-05-16T00:11:17;21.20;54.10
40289;DHT22;28991;52.028;5.526;2023-05-16T00:13:42;21.20;54.00
40289;DHT22;28991;52.028;5.526;2023-05-16T00:16:08;21.20;54.10
40289;DHT22;28991;52.028;5.526;2023-05-16T00:18:34;21.20;54.10
40289;DHT22;28991;52.028;5.526;2023-05-16T00:21:03;21.20;54.10
40289;DHT22;28991;52.028;5.526;2023-05-16T00:23:30;21.20;54.10
40289;DHT22;28991;52.028;5.526;2023-05-16T00:25:55;21.20;54.10
40289;DHT22;28991;52.028;5.526;2023-05-16T00:28:21;21.30;54.10
40289;DHT22;28991;52.028;5.526;2023-05-16T00:30:47;21.20;54.10
40289;DHT22;28991;52.028;5.526;2023-05-16T00:33:12;21.20;54.10
40289;DHT22;28991;52.028;5.526;2023-05-16T00:35:38;21.10;54.00
40289;DHT22;28991;52.028;5.526;2023-05-16T00:38:04;21.30;54.20
40289;DHT22;28991;52.028;5.526;2023-05-16T00:40:29;21.20;54.10
40289;DHT22;28991;52.028;5.526;2023-05-16T00:42:55;21.10;54.10
40289;DHT22;28991;52.028;5.526;2023-05-16T00:45:21;21.10;54.10
40289;DHT22;28991;52.028;5.526;2023-05-16T00:47:47;21.20;54.20
40289;DHT22;28991;52.028;5.526;2023-05-16T00:50:12;21.20;54.20
40289;DHT22;28991;52.028;5.526;2023-05-16T00:52:38;21.10;54.10
40289;DHT22;28991;52.028;5.526;2023-05-16T00:55:04;21.20;54.20
40289;DHT22;28991;52.028;5.526;2023-05-16T00:57:30;21.20;54.20
40289;DHT22;28991;52.028;5.526;2023-05-16T00:59:56;21.20;54.20
40289;DHT22;28991;52.028;5.526;2023-05-16T01:02:22;21.20;54.20
40289;DHT22;28991;52.028;5.526;2023-05-16T01:04:47;21.20;54.20
40289;DHT22;28991;52.028;5.526;2023-05-16T01:07:14;21.20;54.20
40289;DHT22;28991;52.028;5.526;2023-05-16T01:09:40;21.20;54.20
40289;DHT22;28991;52.028;5.526;2023-05-16T01:12:15;21.10;54.20
40289;DHT22;28991;52.028;5.526;2023-05-16T01:20:36;21.10;54.20
40289;DHT22;28991;52.028;5.526;2023-05-16T01:28:34;21.10;54.30
40289;DHT22;28991;52.028;5.526;2023-05-16T01:31:00;21.10;54.20
40289;DHT22;28991;52.028;5.526;2023-05-16T01:33:25;21.10;54.30
40289;DHT22;28991;52.028;5.526;2023-05-16T01:35:58;21.10;54.30
40289;DHT22;28991;52.028;5.526;2023-05-16T01:38:29;21.40;54.50
40289;DHT22;28991;52.028;5.526;2023-05-16T01:43:43;21.10;54.30
40289;DHT22;28991;52.028;5.526;2023-05-16T01:46:14;21.10;54.30
40289;DHT22;28991;52.028;5.526;2023-05-16T01:49:04;21.10;54.90
40289;DHT22;28991;52.028;5.526;2023-05-16T01:51:32;21.20;54.40
40289;DHT22;28991;52.028;5.526;2023-05-16T01:54:05;21.10;54.30
40289;DHT22;28991;52.028;5.526;2023-05-16T01:56:36;21.20;54.40
40289;DHT22;28991;52.028;5.526;2023-05-16T01:59:03;21.40;54.50
40289;DHT22;28991;52.028;5.526;2023-05-16T02:01:29;21.10;54.30
40289;DHT22;28991;52.028;5.526;2023-05-16T02:03:56;21.10;54.30
40289;DHT22;28991;52.028;5.526;2023-05-16T02:06:23;21.10;54.30
40289;DHT22;28991;52.028;5.526;2023-05-16T02:08:48;21.80;54.70
40289;DHT22;28991;52.028;5.526;2023-05-16T02:11:14;21.10;54.30
40289;DHT22;28991;52.028;5.526;2023-05-16T02:13:39;21.20;54.40
40289;DHT22;28991;52.028;5.526;2023-05-16T02:16:05;21.00;54.30
40289;DHT22;28991;52.028;5.526;2023-05-16T02:18:31;21.00;54.20
40289;DHT22;28991;52.028;5.526;2023-05-16T02:20:56;21.10;54.30
40289;DHT22;28991;52.028;5.526;2023-05-16T02:23:22;21.10;54.40
40289;DHT22;28991;52.028;5.526;2023-05-16T02:25:47;21.00;54.30
40289;DHT22;28991;52.028;5.526;2023-05-16T02:28:13;21.10;54.40
40289;DHT22;28991;52.028;5.526;2023-05-16T02:30:39;21.10;54.40
40289;DHT22;28991;52.028;5.526;2023-05-16T02:33:04;21.00;54.30
40289;DHT22;28991;52.028;5.526;2023-05-16T02:35:30;21.10;54.40
40289;DHT22;28991;52.028;5.526;2023-05-16T02:37:56;21.00;54.30
40289;DHT22;28991;52.028;5.526;2023-05-16T02:40:21;21.00;54.30
40289;DHT22;28991;52.028;5.526;2023-05-16T02:42:47;21.10;54.40
40289;DHT22;28991;52.028;5.526;2023-05-16T02:45:12;21.00;54.30
40289;DHT22;28991;52.028;5.526;2023-05-16T02:47:38;21.00;54.30
40289;DHT22;28991;52.028;5.526;2023-05-16T02:50:04;21.20;54.40
40289;DHT22;28991;52.028;5.526;2023-05-16T02:52:30;21.00;54.40
40289;DHT22;28991;52.028;5.526;2023-05-16T02:54:55;21.00;54.40
40289;DHT22;28991;52.028;5.526;2023-05-16T02:57:21;21.00;54.30
40289;DHT22;28991;52.028;5.526;2023-05-16T02:59:47;21.00;54.30
40289;DHT22;28991;52.028;5.526;2023-05-16T03:02:12;21.00;54.40
40289;DHT22;28991;52.028;5.526;2023-05-16T03:04:38;21.00;54.30
40289;DHT22;28991;52.028;5.526;2023-05-16T03:07:03;21.00;54.30
40289;DHT22;28991;52.028;5.526;2023-05-16T03:09:29;21.10;54.40
40289;DHT22;28991;52.028;5.526;2023-05-16T03:11:54;21.00;54.30
40289;DHT22;28991;52.028;5.526;2023-05-16T03:14:20;21.00;54.30
40289;DHT22;28991;52.028;5.526;2023-05-16T03:16:46;21.00;54.40
40289;DHT22;28991;52.028;5.526;2023-05-16T03:19:11;21.00;54.40
40289;DHT22;28991;52.028;5.526;2023-05-16T03:21:38;21.00;54.40
40289;DHT22;28991;52.028;5.526;2023-05-16T03:24:04;20.90;54.30
40289;DHT22;28991;52.028;5.526;2023-05-16T03:26:30;21.00;54.40
40289;DHT22;28991;52.028;5.526;2023-05-16T03:28:55;20.90;54.30
40289;DHT22;28991;52.028;5.526;2023-05-16T03:31:21;21.00;54.40
40289;DHT22;28991;52.028;5.526;2023-05-16T03:33:47;21.00;54.40
40289;DHT22;28991;52.028;5.526;2023-05-16T03:36:12;21.00;54.40
40289;DHT22;28991;52.028;5.526;2023-05-16T03:38:38;20.90;54.30
40289;DHT22;28991;52.028;5.526;2023-05-16T03:41:03;21.00;54.40
40289;DHT22;28991;52.028;5.526;2023-05-16T03:43:29;20.90;54.30
40289;DHT22;28991;52.028;5.526;2023-05-16T03:45:55;21.00;54.40
40289;DHT22;28991;52.028;5.526;2023-05-16T03:48:20;21.10;54.40
40289;DHT22;28991;52.028;5.526;2023-05-16T03:50:46;20.90;54.30
40289;DHT22;28991;52.028;5.526;2023-05-16T03:53:12;20.90;54.30
40289;DHT22;28991;52.028;5.526;2023-05-16T03:55:37;20.90;54.30
40289;DHT22;28991;52.028;5.526;2023-05-16T03:58:03;20.90;54.30
40289;DHT22;28991;52.028;5.526;2023-05-16T04:00:28;20.90;54.30
40289;DHT22;28991;52.028;5.526;2023-05-16T04:02:54;20.90;54.20
40289;DHT22;28991;52.028;5.526;2023-05-16T04:05:20;21.00;54.30
40289;DHT22;28991;52.028;5.526;2023-05-16T04:07:45;20.90;54.20
40289;DHT22;28991;52.028;5.526;2023-05-16T04:10:12;21.00;54.30
40289;DHT22;28991;52.028;5.526;2023-05-16T04:12:38;21.00;54.20
40289;DHT22;28991;52.028;5.526;2023-05-16T04:15:05;20.90;54.10
40289;DHT22;28991;52.028;5.526;2023-05-16T04:17:31;21.00;54.10
40289;DHT22;28991;52.028;5.526;2023-05-16T04:19:57;21.00;54.10
40289;DHT22;28991;52.028;5.526;2023-05-16T04:22:23;21.00;54.10
40289;DHT22;28991;52.028;5.526;2023-05-16T04:24:48;21.00;54.10
40289;DHT22;28991;52.028;5.526;2023-05-16T04:27:14;21.00;54.00
40289;DHT22;28991;52.028;5.526;2023-05-16T04:29:40;21.00;54.00
40289;DHT22;28991;52.028;5.526;2023-05-16T04:32:06;21.00;54.00
40289;DHT22;28991;52.028;5.526;2023-05-16T04:34:32;21.10;53.90
40289;DHT22;28991;52.028;5.526;2023-05-16T04:36:58;21.20;53.80
40289;DHT22;28991;52.028;5.526;2023-05-16T04:39:24;21.30;53.60
40289;DHT22;28991;52.028;5.526;2023-05-16T04:41:50;21.40;53.30
40289;DHT22;28991;52.028;5.526;2023-05-16T04:44:16;21.50;53.00
40289;DHT22;28991;52.028;5.526;2023-05-16T04:46:41;21.80;52.70
40289;DHT22;28991;52.028;5.526;2023-05-16T04:49:07;22.00;52.40
40289;DHT22;28991;52.028;5.526;2023-05-16T04:51:33;22.30;52.10
40289;DHT22;28991;52.028;5.526;2023-05-16T04:53:59;22.30;51.70
40289;DHT22;28991;52.028;5.526;2023-05-16T04:56:25;22.40;51.30
40289;DHT22;28991;52.028;5.526;2023-05-16T04:58:51;22.60;51.00
40289;DHT22;28991;52.028;5.526;2023-05-16T05:01:20;22.70;50.70
40289;DHT22;28991;52.028;5.526;2023-05-16T05:03:45;22.70;50.60
40289;DHT22;28991;52.028;5.526;2023-05-16T05:06:11;22.70;50.70
40289;DHT22;28991;52.028;5.526;2023-05-16T05:08:37;22.60;51.00
40289;DHT22;28991;52.028;5.526;2023-05-16T05:11:02;22.50;50.70
40289;DHT22;28991;52.028;5.526;2023-05-16T05:13:28;22.30;50.60
40289;DHT22;28991;52.028;5.526;2023-05-16T05:15:53;22.40;50.30
40289;DHT22;28991;52.028;5.526;2023-05-16T05:18:19;22.70;50.10
40289;DHT22;28991;52.028;5.526;2023-05-16T05:20:44;22.90;49.40
40289;DHT22;28991;52.028;5.526;2023-05-16T05:23:10;23.20;48.90
40289;DHT22;28991;52.028;5.526;2023-05-16T05:25:37;23.50;48.00
40289;DHT22;28991;52.028;5.526;2023-05-16T05:28:04;23.70;46.90
40289;DHT22;28991;52.028;5.526;2023-05-16T05:30:29;24.00;45.40
40289;DHT22;28991;52.028;5.526;2023-05-16T05:32:55;24.30;44.00
40289;DHT22;28991;52.028;5.526;2023-05-16T05:35:21;24.50;43.80
40289;DHT22;28991;52.028;5.526;2023-05-16T05:37:46;24.70;43.00
40289;DHT22;28991;52.028;5.526;2023-05-16T05:40:12;24.90;42.30
40289;DHT22;28991;52.028;5.526;2023-05-16T05:42:38;25.10;41.70
40289;DHT22;28991;52.028;5.526;2023-05-16T05:45:04;25.30;41.00
40289;DHT22;28991;52.028;5.526;2023-05-16T05:47:30;25.60;40.20
40289;DHT22;28991;52.028;5.526;2023-05-16T05:49:56;25.80;39.70
40289;DHT22;28991;52.028;5.526;2023-05-16T05:52:21;25.90;38.90
40289;DHT22;28991;52.028;5.526;2023-05-16T05:54:47;26.10;38.40
40289;DHT22;28991;52.028;5.526;2023-05-16T05:57:13;26.20;37.90
40289;DHT22;28991;52.028;5.526;2023-05-16T05:59:38;26.40;37.70
40289;DHT22;28991;52.028;5.526;2023-05-16T06:02:04;26.50;37.40
40289;DHT22;28991;52.028;5.526;2023-05-16T06:04:30;26.40;37.40
40289;DHT22;28991;52.028;5.526;2023-05-16T06:06:55;26.50;37.40
40289;DHT22;28991;52.028;5.526;2023-05-16T06:09:21;26.50;37.00
40289;DHT22;28991;52.028;5.526;2023-05-16T06:11:47;26.70;36.80
40289;DHT22;28991;52.028;5.526;2023-05-16T06:14:13;26.80;36.40
40289;DHT22;28991;52.028;5.526;2023-05-16T06:16:40;27.10;36.30
40289;DHT22;28991;52.028;5.526;2023-05-16T06:19:05;27.10;35.90
40289;DHT22;28991;52.028;5.526;2023-05-16T06:21:31;27.30;35.80
40289;DHT22;28991;52.028;5.526;2023-05-16T06:23:57;27.40;35.60
40289;DHT22;28991;52.028;5.526;2023-05-16T06:26:23;27.40;35.30
40289;DHT22;28991;52.028;5.526;2023-05-16T06:28:49;27.50;35.20
40289;DHT22;28991;52.028;5.526;2023-05-16T06:31:14;27.50;34.80
40289;DHT22;28991;52.028;5.526;2023-05-16T06:33:40;27.60;35.00
40289;DHT22;28991;52.028;5.526;2023-05-16T06:36:06;27.60;35.40
40289;DHT22;28991;52.028;5.526;2023-05-16T06:38:32;27.70;34.70
40289;DHT22;28991;52.028;5.526;2023-05-16T06:40:57;27.70;34.50
40289;DHT22;28991;52.028;5.526;2023-05-16T06:43:23;27.80;34.50
40289;DHT22;28991;52.028;5.526;2023-05-16T06:45:48;27.80;34.50
40289;DHT22;28991;52.028;5.526;2023-05-16T06:48:14;27.80;34.40
40289;DHT22;28991;52.028;5.526;2023-05-16T06:50:40;27.70;34.40
40289;DHT22;28991;52.028;5.526;2023-05-16T06:53:06;27.70;34.60
40289;DHT22;28991;52.028;5.526;2023-05-16T06:55:34;27.70;34.60
40289;DHT22;28991;52.028;5.526;2023-05-16T06:58:00;27.60;34.60
40289;DHT22;28991;52.028;5.526;2023-05-16T07:00:26;27.60;34.60
40289;DHT22;28991;52.028;5.526;2023-05-16T07:02:51;27.50;34.60
40289;DHT22;28991;52.028;5.526;2023-05-16T07:05:17;27.40;34.40
40289;DHT22;28991;52.028;5.526;2023-05-16T07:07:43;27.10;34.50
40289;DHT22;28991;52.028;5.526;2023-05-16T07:10:09;26.80;34.70
40289;DHT22;28991;52.028;5.526;2023-05-16T07:12:35;26.40;35.20
40289;DHT22;28991;52.028;5.526;2023-05-16T07:15:02;26.10;35.60
40289;DHT22;28991;52.028;5.526;2023-05-16T07:17:28;25.80;35.90
40289;DHT22;28991;52.028;5.526;2023-05-16T07:19:54;25.50;36.20
40289;DHT22;28991;52.028;5.526;2023-05-16T07:22:19;25.30;36.60
40289;DHT22;28991;52.028;5.526;2023-05-16T07:24:45;25.00;36.70
40289;DHT22;28991;52.028;5.526;2023-05-16T07:27:10;24.90;37.20
40289;DHT22;28991;52.028;5.526;2023-05-16T07:29:37;24.70;37.10
40289;DHT22;28991;52.028;5.526;2023-05-16T07:32:03;24.70;37.00
40289;DHT22;28991;52.028;5.526;2023-05-16T07:34:29;24.90;36.70
40289;DHT22;28991;52.028;5.526;2023-05-16T07:36:54;24.90;36.60
40289;DHT22;28991;52.028;5.526;2023-05-16T07:39:20;25.10;36.30
40289;DHT22;28991;52.028;5.526;2023-05-16T07:41:45;25.20;36.00
40289;DHT22;28991;52.028;5.526;2023-05-16T07:44:11;24.40;35.40
40289;DHT22;28991;52.028;5.526;2023-05-16T07:46:36;25.40;35.70
40289;DHT22;28991;52.028;5.526;2023-05-16T07:49:02;25.50;35.60
40289;DHT22;28991;52.028;5.526;2023-05-16T07:51:27;25.50;35.60
40289;DHT22;28991;52.028;5.526;2023-05-16T07:53:53;25.50;35.40
40289;DHT22;28991;52.028;5.526;2023-05-16T07:56:19;25.30;35.50
40289;DHT22;28991;52.028;5.526;2023-05-16T07:58:44;25.20;35.60
40289;DHT22;28991;52.028;5.526;2023-05-16T08:01:10;25.10;35.70
40289;DHT22;28991;52.028;5.526;2023-05-16T08:03:36;25.00;35.60
40289;DHT22;28991;52.028;5.526;2023-05-16T08:06:01;24.90;35.60
40289;DHT22;28991;52.028;5.526;2023-05-16T08:08:27;24.90;35.60
40289;DHT22;28991;52.028;5.526;2023-05-16T08:10:52;25.00;35.60
40289;DHT22;28991;52.028;5.526;2023-05-16T08:13:18;25.10;35.60
40289;DHT22;28991;52.028;5.526;2023-05-16T08:15:44;25.20;35.50
40289;DHT22;28991;52.028;5.526;2023-05-16T08:18:14;25.20;35.50
40289;DHT22;28991;52.028;5.526;2023-05-16T08:20:40;25.10;35.50
40289;DHT22;28991;52.028;5.526;2023-05-16T08:23:07;25.00;35.60
40289;DHT22;28991;52.028;5.526;2023-05-16T08:25:33;24.90;35.70
40289;DHT22;28991;52.028;5.526;2023-05-16T08:28:01;25.00;36.00
40289;DHT22;28991;52.028;5.526;2023-05-16T08:30:27;24.70;36.20
40289;DHT22;28991;52.028;5.526;2023-05-16T08:32:53;24.50;36.20
40289;DHT22;28991;52.028;5.526;2023-05-16T08:35:19;24.40;36.30
40289;DHT22;28991;52.028;5.526;2023-05-16T08:37:45;24.20;36.40
40289;DHT22;28991;52.028;5.526;2023-05-16T08:40:11;24.10;36.70
40289;DHT22;28991;52.028;5.526;2023-05-16T08:42:38;24.00;36.70
40289;DHT22;28991;52.028;5.526;2023-05-16T08:45:06;23.90;36.90
40289;DHT22;28991;52.028;5.526;2023-05-16T08:47:32;24.00;37.10
40289;DHT22;28991;52.028;5.526;2023-05-16T08:49:59;24.00;37.30
40289;DHT22;28991;52.028;5.526;2023-05-16T08:52:27;24.10;37.50
40289;DHT22;28991;52.028;5.526;2023-05-16T08:54:57;24.10;37.60
40289;DHT22;28991;52.028;5.526;2023-05-16T08:57:24;24.20;37.80
40289;DHT22;28991;52.028;5.526;2023-05-16T08:59:50;24.30;37.90
40289;DHT22;28991;52.028;5.526;2023-05-16T09:02:20;24.40;38.10
40289;DHT22;28991;52.028;5.526;2023-05-16T09:04:46;24.40;38.10
40289;DHT22;28991;52.028;5.526;2023-05-16T09:07:13;24.50;38.30
40289;DHT22;28991;52.028;5.526;2023-05-16T09:09:38;24.50;38.50
40289;DHT22;28991;52.028;5.526;2023-05-16T09:12:04;24.60;38.30
40289;DHT22;28991;52.028;5.526;2023-05-16T09:14:30;24.60;38.30
40289;DHT22;28991;52.028;5.526;2023-05-16T09:17:06;24.60;38.40
40289;DHT22;28991;52.028;5.526;2023-05-16T09:19:39;24.50;38.50
40289;DHT22;28991;52.028;5.526;2023-05-16T09:22:12;24.40;38.60
40289;DHT22;28991;52.028;5.526;2023-05-16T09:24:42;24.30;38.90
40289;DHT22;28991;52.028;5.526;2023-05-16T09:27:10;24.20;38.90
40289;DHT22;28991;52.028;5.526;2023-05-16T09:29:35;24.20;38.90
40289;DHT22;28991;52.028;5.526;2023-05-16T09:32:11;24.20;38.90
40289;DHT22;28991;52.028;5.526;2023-05-16T09:34:42;24.20;38.80
40289;DHT22;28991;52.028;5.526;2023-05-16T09:37:09;24.20;38.70
40289;DHT22;28991;52.028;5.526;2023-05-16T09:39:35;24.30;38.80
40289;DHT22;28991;52.028;5.526;2023-05-16T09:42:01;24.30;39.40
40289;DHT22;28991;52.028;5.526;2023-05-16T09:44:26;24.30;38.80
40289;DHT22;28991;52.028;5.526;2023-05-16T09:46:55;24.30;38.80
40289;DHT22;28991;52.028;5.526;2023-05-16T09:49:21;24.30;38.70
40289;DHT22;28991;52.028;5.526;2023-05-16T09:51:46;24.30;38.70
40289;DHT22;28991;52.028;5.526;2023-05-16T09:54:12;24.20;38.60
40289;DHT22;28991;52.028;5.526;2023-05-16T09:56:48;24.20;38.60
40289;DHT22;28991;52.028;5.526;2023-05-16T09:59:15;24.20;38.40
40289;DHT22;28991;52.028;5.526;2023-05-16T10:01:41;24.10;38.40
40289;DHT22;28991;52.028;5.526;2023-05-16T10:04:07;24.20;38.30
40289;DHT22;28991;52.028;5.526;2023-05-16T10:06:39;24.20;38.00
40289;DHT22;28991;52.028;5.526;2023-05-16T10:09:05;24.20;37.80
40289;DHT22;28991;52.028;5.526;2023-05-16T10:11:32;24.10;37.40
40289;DHT22;28991;52.028;5.526;2023-05-16T10:13:58;24.10;37.50
40289;DHT22;28991;52.028;5.526;2023-05-16T10:16:25;24.10;37.40
40289;DHT22;28991;52.028;5.526;2023-05-16T10:18:51;24.00;37.30
40289;DHT22;28991;52.028;5.526;2023-05-16T10:21:18;24.00;37.20
40289;DHT22;28991;52.028;5.526;2023-05-16T10:23:47;24.00;36.90
40289;DHT22;28991;52.028;5.526;2023-05-16T10:26:16;24.00;36.90
40289;DHT22;28991;52.028;5.526;2023-05-16T10:28:42;24.00;36.70
40289;DHT22;28991;52.028;5.526;2023-05-16T10:31:09;24.00;36.70
40289;DHT22;28991;52.028;5.526;2023-05-16T10:33:35;24.00;35.90
40289;DHT22;28991;52.028;5.526;2023-05-16T10:36:01;24.00;36.50
40289;DHT22;28991;52.028;5.526;2023-05-16T10:38:30;23.90;36.50
40289;DHT22;28991;52.028;5.526;2023-05-16T10:40:56;24.10;36.50
40289;DHT22;28991;52.028;5.526;2023-05-16T10:43:24;23.90;35.90
40289;DHT22;28991;52.028;5.526;2023-05-16T10:45:55;23.90;35.80
40289;DHT22;28991;52.028;5.526;2023-05-16T10:48:32;23.80;36.00
40289;DHT22;28991;52.028;5.526;2023-05-16T10:50:57;23.80;35.70
40289;DHT22;28991;52.028;5.526;2023-05-16T10:53:31;23.80;36.20
40289;DHT22;28991;52.028;5.526;2023-05-16T11:14:35;23.60;35.60
40289;DHT22;28991;52.028;5.526;2023-05-16T11:17:15;23.50;35.70
40289;DHT22;28991;52.028;5.526;2023-05-16T11:19:47;23.40;35.50
40289;DHT22;28991;52.028;5.526;2023-05-16T11:25:01;23.30;35.50
40289;DHT22;28991;52.028;5.526;2023-05-16T11:27:31;23.30;35.90
40289;DHT22;28991;52.028;5.526;2023-05-16T11:32:35;23.30;35.80
40289;DHT22;28991;52.028;5.526;2023-05-16T11:35:01;23.30;35.90
40289;DHT22;28991;52.028;5.526;2023-05-16T11:37:28;23.30;35.90
40289;DHT22;28991;52.028;5.526;2023-05-16T11:40:01;23.30;36.50
40289;DHT22;28991;52.028;5.526;2023-05-16T11:42:30;23.20;35.60
40289;DHT22;28991;52.028;5.526;2023-05-16T11:45:08;23.20;35.90
40289;DHT22;28991;52.028;5.526;2023-05-16T11:47:38;23.20;35.80
40289;DHT22;28991;52.028;5.526;2023-05-16T11:50:15;23.10;35.60
40289;DHT22;28991;52.028;5.526;2023-05-16T11:52:51;23.10;35.20
40289;DHT22;28991;52.028;5.526;2023-05-16T11:55:20;23.10;35.10
40289;DHT22;28991;52.028;5.526;2023-05-16T11:57:50;23.00;35.00
40289;DHT22;28991;52.028;5.526;2023-05-16T12:00:17;23.00;35.00
40289;DHT22;28991;52.028;5.526;2023-05-16T12:02:48;23.00;35.10
40289;DHT22;28991;52.028;5.526;2023-05-16T12:05:16;23.00;35.10
40289;DHT22;28991;52.028;5.526;2023-05-16T12:07:42;22.90;35.20
40289;DHT22;28991;52.028;5.526;2023-05-16T12:10:11;22.90;35.20
40289;DHT22;28991;52.028;5.526;2023-05-16T12:12:39;22.90;35.30
40289;DHT22;28991;52.028;5.526;2023-05-16T12:15:06;22.90;35.10
40289;DHT22;28991;52.028;5.526;2023-05-16T12:17:33;22.80;35.20
40289;DHT22;28991;52.028;5.526;2023-05-16T12:19:59;22.70;35.20
40289;DHT22;28991;52.028;5.526;2023-05-16T12:22:25;22.70;35.20
40289;DHT22;28991;52.028;5.526;2023-05-16T12:24:51;22.70;35.50
40289;DHT22;28991;52.028;5.526;2023-05-16T12:27:24;22.80;35.60
40289;DHT22;28991;52.028;5.526;2023-05-16T12:29:50;22.60;35.40
40289;DHT22;28991;52.028;5.526;2023-05-16T12:32:19;22.60;35.40
40289;DHT22;28991;52.028;5.526;2023-05-16T12:34:49;22.60;35.70
40289;DHT22;28991;52.028;5.526;2023-05-16T12:37:16;22.50;35.80
40289;DHT22;28991;52.028;5.526;2023-05-16T12:39:42;22.50;35.60
40289;DHT22;28991;52.028;5.526;2023-05-16T12:42:07;22.50;35.90
40289;DHT22;28991;52.028;5.526;2023-05-16T12:44:34;22.50;36.00
40289;DHT22;28991;52.028;5.526;2023-05-16T12:47:01;22.50;35.90
40289;DHT22;28991;52.028;5.526;2023-05-16T12:49:26;22.40;36.00
40289;DHT22;28991;52.028;5.526;2023-05-16T12:51:54;22.40;36.10
40289;DHT22;28991;52.028;5.526;2023-05-16T12:54:20;22.40;36.40
40289;DHT22;28991;52.028;5.526;2023-05-16T12:56:49;22.30;36.00
40289;DHT22;28991;52.028;5.526;2023-05-16T12:59:15;22.40;36.40
40289;DHT22;28991;52.028;5.526;2023-05-16T13:01:41;22.30;36.40
40289;DHT22;28991;52.028;5.526;2023-05-16T13:04:08;22.30;36.50
40289;DHT22;28991;52.028;5.526;2023-05-16T13:06:38;22.30;36.60
40289;DHT22;28991;52.028;5.526;2023-05-16T13:09:04;22.40;36.80
40289;DHT22;28991;52.028;5.526;2023-05-16T13:11:29;22.50;36.90
40289;DHT22;28991;52.028;5.526;2023-05-16T13:13:55;22.40;37.00
40289;DHT22;28991;52.028;5.526;2023-05-16T13:16:20;22.40;37.20
40289;DHT22;28991;52.028;5.526;2023-05-16T13:18:46;22.40;37.30
40289;DHT22;28991;52.028;5.526;2023-05-16T13:21:12;22.40;37.40
40289;DHT22;28991;52.028;5.526;2023-05-16T13:23:37;22.40;37.50
40289;DHT22;28991;52.028;5.526;2023-05-16T13:26:03;22.40;37.60
40289;DHT22;28991;52.028;5.526;2023-05-16T13:28:29;22.40;37.80
40289;DHT22;28991;52.028;5.526;2023-05-16T13:30:56;22.30;37.90
40289;DHT22;28991;52.028;5.526;2023-05-16T13:33:21;22.30;38.00
40289;DHT22;28991;52.028;5.526;2023-05-16T13:35:49;22.30;38.10
40289;DHT22;28991;52.028;5.526;2023-05-16T13:38:15;22.30;38.20
40289;DHT22;28991;52.028;5.526;2023-05-16T13:40:41;22.20;38.20
40289;DHT22;28991;52.028;5.526;2023-05-16T13:43:07;22.30;38.30
40289;DHT22;28991;52.028;5.526;2023-05-16T13:45:32;22.20;38.30
40289;DHT22;28991;52.028;5.526;2023-05-16T13:47:59;22.20;38.40
40289;DHT22;28991;52.028;5.526;2023-05-16T13:50:24;22.20;38.40
40289;DHT22;28991;52.028;5.526;2023-05-16T13:52:50;22.20;38.30
40289;DHT22;28991;52.028;5.526;2023-05-16T13:55:16;22.20;38.30
40289;DHT22;28991;52.028;5.526;2023-05-16T13:57:42;22.20;38.20
40289;DHT22;28991;52.028;5.526;2023-05-16T14:00:08;22.20;38.40
40289;DHT22;28991;52.028;5.526;2023-05-16T14:02:40;22.20;38.40
40289;DHT22;28991;52.028;5.526;2023-05-16T14:05:07;22.20;38.40
40289;DHT22;28991;52.028;5.526;2023-05-16T14:07:34;22.10;38.40
40289;DHT22;28991;52.028;5.526;2023-05-16T14:09:59;22.20;38.40
40289;DHT22;28991;52.028;5.526;2023-05-16T14:12:25;22.20;38.50
40289;DHT22;28991;52.028;5.526;2023-05-16T14:14:51;22.20;38.60
40289;DHT22;28991;52.028;5.526;2023-05-16T14:17:16;22.30;38.80
40289;DHT22;28991;52.028;5.526;2023-05-16T14:19:42;22.30;38.80
40289;DHT22;28991;52.028;5.526;2023-05-16T14:22:07;22.30;38.90
40289;DHT22;28991;52.028;5.526;2023-05-16T14:24:33;22.30;39.00
40289;DHT22;28991;52.028;5.526;2023-05-16T14:26:59;22.30;39.10
40289;DHT22;28991;52.028;5.526;2023-05-16T14:29:25;22.30;39.10
40289;DHT22;28991;52.028;5.526;2023-05-16T14:31:50;22.40;39.20
40289;DHT22;28991;52.028;5.526;2023-05-16T14:34:16;22.20;39.20
40289;DHT22;28991;52.028;5.526;2023-05-16T14:36:42;22.20;39.30
40289;DHT22;28991;52.028;5.526;2023-05-16T14:39:08;22.20;39.40
40289;DHT22;28991;52.028;5.526;2023-05-16T14:41:34;22.30;39.50
40289;DHT22;28991;52.028;5.526;2023-05-16T14:43:59;22.20;39.50
40289;DHT22;28991;52.028;5.526;2023-05-16T14:46:25;22.10;39.50
40289;DHT22;28991;52.028;5.526;2023-05-16T14:48:51;22.20;39.70
40289;DHT22;28991;52.028;5.526;2023-05-16T14:51:17;22.10;39.70
40289;DHT22;28991;52.028;5.526;2023-05-16T14:53:42;22.20;39.80
40289;DHT22;28991;52.028;5.526;2023-05-16T14:56:08;22.40;40.10
40289;DHT22;28991;52.028;5.526;2023-05-16T14:58:33;22.10;40.00
40289;DHT22;28991;52.028;5.526;2023-05-16T15:00:59;22.10;40.10
40289;DHT22;28991;52.028;5.526;2023-05-16T15:03:24;22.10;40.10
40289;DHT22;28991;52.028;5.526;2023-05-16T15:05:50;22.10;40.00
40289;DHT22;28991;52.028;5.526;2023-05-16T15:08:16;22.10;39.90
40289;DHT22;28991;52.028;5.526;2023-05-16T15:10:42;22.10;39.90
40289;DHT22;28991;52.028;5.526;2023-05-16T15:13:08;22.10;40.00
40289;DHT22;28991;52.028;5.526;2023-05-16T15:15:33;22.10;40.10
40289;DHT22;28991;52.028;5.526;2023-05-16T15:17:59;22.10;40.10
40289;DHT22;28991;52.028;5.526;2023-05-16T15:20:25;21.90;40.20
40289;DHT22;28991;52.028;5.526;2023-05-16T15:22:51;22.00;40.30
40289;DHT22;28991;52.028;5.526;2023-05-16T15:25:17;22.10;40.40
40289;DHT22;28991;52.028;5.526;2023-05-16T15:27:42;22.00;40.40
40289;DHT22;28991;52.028;5.526;2023-05-16T15:30:08;22.00;40.50
40289;DHT22;28991;52.028;5.526;2023-05-16T15:32:35;22.00;40.60
40289;DHT22;28991;52.028;5.526;2023-05-16T15:35:00;22.00;40.60
40289;DHT22;28991;52.028;5.526;2023-05-16T15:37:26;22.00;40.70
40289;DHT22;28991;52.028;5.526;2023-05-16T15:39:51;22.00;40.80
40289;DHT22;28991;52.028;5.526;2023-05-16T15:42:17;22.00;40.80
40289;DHT22;28991;52.028;5.526;2023-05-16T15:44:44;22.00;40.80
40289;DHT22;28991;52.028;5.526;2023-05-16T15:47:10;22.00;40.90
40289;DHT22;28991;52.028;5.526;2023-05-16T15:49:35;22.00;40.90
40289;DHT22;28991;52.028;5.526;2023-05-16T15:52:01;22.00;41.00
40289;DHT22;28991;52.028;5.526;2023-05-16T15:54:27;22.00;41.00
40289;DHT22;28991;52.028;5.526;2023-05-16T15:56:53;22.00;41.10
40289;DHT22;28991;52.028;5.526;2023-05-16T15:59:19;21.80;41.00
40289;DHT22;28991;52.028;5.526;2023-05-16T16:01:44;22.00;41.20
40289;DHT22;28991;52.028;5.526;2023-05-16T16:04:10;22.00;41.20